Terminal Aerodrome Forecast
Issued by NWS

Home | Current Version | Previous Version | Text Only | Print | Product List | Glossary On
Versions: 1 2 3 4 5 6 7 8 9 10 11 12 13 14 15 16 17 18 19
327
FTUS41 KILN 161135
TAFLCK
TAF
KLCK 161135Z 1612/1712 26007KT P6SM SCT018 OVC080
      TEMPO 1612/1613 BKN018
     FM162200 27008KT P6SM BKN022
     FM170300 24003KT P6SM OVC015=

USA.gov is the U.S. government's official web portal to all federal, state and local government web resources and services.